Time;durP1;ratioP1;P1;durP2;ratioP2;P2;SDS_P1;SDS_P2;PMS_P1;PMS_P2;Temp;Humidity;BMP_temperature;BMP_pressure;BME280_temperature;BME280_humidity;BME280_pressure;Samples;Min_cycle;Max_cycle;Signal;HPM_P1;HPM_P2
2021/05/04 00:02:19;;;;;;;9.03;6.47;;;;;;;;;;5009207;28;20449;-71
2021/05/04 00:04:45;;;;;;;9.03;6.20;;;;;;;;;;5009135;28;20451;-72
2021/05/04 00:07:11;;;;;;;9.50;7.30;;;;;;;;;;5006193;28;20489;-72
2021/05/04 00:09:37;;;;;;;9.00;6.27;;;;;;;;;;5022622;28;20936;-72
2021/05/04 00:12:03;;;;;;;7.20;6.50;;;;;;;;;;5021385;28;20443;-72
2021/05/04 00:14:31;;;;;;;8.20;6.60;;;;;;;;;;5004793;28;20442;-72
2021/05/04 00:16:57;;;;;;;6.97;6.30;;;;;;;;;;5007065;28;20510;-72
2021/05/04 00:19:23;;;;;;;8.57;6.07;;;;;;;;;;5019165;28;20435;-74
2021/05/04 00:21:49;;;;;;;7.77;6.37;;;;;;;;;;5003284;28;20816;-72
2021/05/04 00:24:15;;;;;;;7.50;6.80;;;;;;;;;;5005667;28;20486;-73
2021/05/04 00:26:41;;;;;;;7.17;6.50;;;;;;;;;;5025024;28;20470;-72
2021/05/04 00:29:07;;;;;;;11.63;6.90;;;;;;;;;;5020583;28;20485;-72
2021/05/04 00:31:33;;;;;;;8.43;6.50;;;;;;;;;;5021584;28;20518;-73
2021/05/04 00:33:59;;;;;;;6.53;5.90;;;;;;;;;;5001836;28;20514;-72
2021/05/04 00:36:25;;;;;;;9.33;6.77;;;;;;;;;;5017631;28;20466;-72
2021/05/04 00:38:51;;;;;;;8.80;5.70;;;;;;;;;;5022412;28;20431;-72
2021/05/04 00:41:18;;;;;;;10.73;5.03;;;;;;;;;;5020667;28;21015;-72
2021/05/04 00:43:44;;;;;;;5.30;4.80;;;;;;;;;;5003946;28;20431;-72
2021/05/04 00:46:10;;;;;;;5.47;4.90;;;;;;;;;;5018486;28;20501;-72
2021/05/04 00:48:36;;;;;;;6.70;5.13;;;;;;;;;;5005143;28;20483;-72
2021/05/04 00:51:02;;;;;;;7.30;4.60;;;;;;;;;;5024272;28;20439;-73
2021/05/04 00:53:29;;;;;;;6.10;5.43;;;;;;;;;;5016425;28;20510;-72
2021/05/04 00:55:57;;;;;;;8.00;5.23;;;;;;;;;;5020564;28;20522;-72
2021/05/04 00:58:23;;;;;;;5.30;4.63;;;;;;;;;;5013591;28;20482;-71
2021/05/04 01:00:49;;;;;;;5.30;4.90;;;;;;;;;;5017706;28;20971;-71
2021/05/04 01:03:16;;;;;;;8.20;5.30;;;;;;;;;;5016567;28;20446;-72
2021/05/04 01:05:42;;;;;;;6.13;5.53;;;;;;;;;;5023388;28;20439;-73
2021/05/04 01:08:08;;;;;;;8.83;5.80;;;;;;;;;;5022124;28;20478;-72
2021/05/04 01:10:34;;;;;;;9.30;5.23;;;;;;;;;;5021172;28;20957;-71
2021/05/04 01:13:00;;;;;;;7.43;5.50;;;;;;;;;;5025471;28;20435;-72
2021/05/04 01:15:26;;;;;;;6.27;5.67;;;;;;;;;;5025805;28;20442;-71
2021/05/04 01:17:53;;;;;;;6.93;5.20;;;;;;;;;;5019182;28;20540;-72
2021/05/04 01:20:19;;;;;;;10.37;5.70;;;;;;;;;;5020015;28;20448;-72
2021/05/04 01:22:45;;;;;;;8.40;5.30;;;;;;;;;;5005505;28;20450;-71
2021/05/04 01:25:11;;;;;;;10.10;4.93;;;;;;;;;;5027138;28;20447;-71
2021/05/04 01:27:37;;;;;;;7.23;6.17;;;;;;;;;;5012072;28;20567;-72
2021/05/04 01:30:04;;;;;;;8.90;5.70;;;;;;;;;;5027518;28;20463;-72
2021/05/04 01:32:30;;;;;;;17.13;5.53;;;;;;;;;;5029199;28;20441;-72
2021/05/04 01:34:57;;;;;;;5.83;5.07;;;;;;;;;;5029099;28;20514;-72
2021/05/04 01:37:24;;;;;;;6.43;4.60;;;;;;;;;;5028331;28;20498;-73
2021/05/04 01:39:50;;;;;;;7.33;5.17;;;;;;;;;;5008805;28;20454;-72
2021/05/04 01:42:19;;;;;;;12.37;4.80;;;;;;;;;;5028560;28;20781;-72
2021/05/04 01:44:46;;;;;;;11.90;4.90;;;;;;;;;;5026205;28;20443;-72
2021/05/04 01:47:12;;;;;;;8.03;5.60;;;;;;;;;;5006720;28;20486;-71
2021/05/04 01:49:38;;;;;;;5.53;5.00;;;;;;;;;;5012418;28;20439;-72
2021/05/04 01:52:05;;;;;;;6.67;5.70;;;;;;;;;;5028298;28;20467;-72
2021/05/04 01:54:31;;;;;;;5.80;5.17;;;;;;;;;;5029451;28;20470;-71
2021/05/04 01:56:58;;;;;;;6.57;5.20;;;;;;;;;;5011726;28;20451;-72
2021/05/04 01:59:24;;;;;;;6.30;5.47;;;;;;;;;;5021614;28;20426;-71
2021/05/04 02:01:50;;;;;;;7.53;5.20;;;;;;;;;;5007616;28;20941;-72
2021/05/04 02:04:16;;;;;;;8.27;5.47;;;;;;;;;;5017732;28;20450;-72
2021/05/04 02:06:42;;;;;;;12.30;5.57;;;;;;;;;;5021453;28;20478;-71
2021/05/04 02:09:09;;;;;;;5.70;5.10;;;;;;;;;;5014452;28;20442;-71
2021/05/04 02:11:35;;;;;;;7.40;4.30;;;;;;;;;;5000809;28;20447;-72
2021/05/04 02:14:02;;;;;;;5.83;5.03;;;;;;;;;;5025078;28;20522;-72
2021/05/04 02:16:28;;;;;;;5.50;4.80;;;;;;;;;;5017429;28;20919;-72
2021/05/04 02:18:56;;;;;;;7.07;5.17;;;;;;;;;;5023180;28;20459;-74
2021/05/04 02:21:23;;;;;;;7.93;5.20;;;;;;;;;;5005548;28;20945;-72
2021/05/04 02:23:49;;;;;;;11.13;5.63;;;;;;;;;;5023582;28;20424;-72
2021/05/04 02:26:16;;;;;;;10.20;6.23;;;;;;;;;;5008797;28;20430;-71
2021/05/04 02:28:43;;;;;;;7.63;5.40;;;;;;;;;;5024178;28;20951;-72
2021/05/04 02:31:09;;;;;;;7.70;5.57;;;;;;;;;;5007242;28;20819;-71
2021/05/04 02:33:36;;;;;;;5.80;5.13;;;;;;;;;;5025155;28;20442;-72
2021/05/04 02:36:03;;;;;;;10.57;5.10;;;;;;;;;;5018302;28;20549;-72
2021/05/04 02:38:30;;;;;;;7.60;5.47;;;;;;;;;;5020198;28;20490;-71
2021/05/04 02:40:56;;;;;;;8.47;5.57;;;;;;;;;;5029108;28;20434;-71
2021/05/04 02:43:22;;;;;;;6.60;5.90;;;;;;;;;;5026106;28;20430;-75
2021/05/04 02:45:48;;;;;;;9.13;6.07;;;;;;;;;;5026866;28;20522;-72
2021/05/04 02:48:14;;;;;;;10.43;5.90;;;;;;;;;;5022101;28;20562;-71
2021/05/04 02:50:40;;;;;;;7.90;5.63;;;;;;;;;;5021979;28;21073;-71
2021/05/04 02:53:06;;;;;;;7.73;6.07;;;;;;;;;;5020586;28;20450;-71
2021/05/04 02:55:32;;;;;;;5.17;4.67;;;;;;;;;;5010831;28;20427;-72
2021/05/04 02:57:58;;;;;;;10.00;5.63;;;;;;;;;;5022805;28;20498;-72
2021/05/04 03:00:24;;;;;;;9.60;5.80;;;;;;;;;;5002573;28;20443;-71
2021/05/04 03:02:50;;;;;;;10.33;6.20;;;;;;;;;;5004358;28;20953;-71
2021/05/04 03:05:17;;;;;;;6.60;4.97;;;;;;;;;;5005118;28;20439;-72
2021/05/04 03:07:44;;;;;;;6.70;6.10;;;;;;;;;;5006018;28;20876;-72
2021/05/04 03:10:10;;;;;;;8.97;7.23;;;;;;;;;;5021991;28;20525;-73
2021/05/04 03:12:36;;;;;;;10.93;6.30;;;;;;;;;;5020743;28;20470;-71
2021/05/04 03:15:02;;;;;;;7.10;5.03;;;;;;;;;;5022647;28;20439;-71
2021/05/04 03:17:28;;;;;;;7.60;6.67;;;;;;;;;;5003790;28;20809;-71
2021/05/04 03:19:54;;;;;;;9.97;5.80;;;;;;;;;;5007305;28;20497;-73
2021/05/04 03:22:20;;;;;;;10.07;5.27;;;;;;;;;;5015700;28;20435;-71
2021/05/04 03:24:47;;;;;;;10.87;4.80;;;;;;;;;;5021961;28;20492;-71
2021/05/04 03:27:13;;;;;;;6.00;4.47;;;;;;;;;;5023635;28;20479;-71
2021/05/04 03:29:39;;;;;;;5.13;4.30;;;;;;;;;;5009038;28;20839;-71
2021/05/04 03:32:05;;;;;;;6.77;3.90;;;;;;;;;;5021260;28;20437;-72
2021/05/04 03:34:31;;;;;;;5.97;4.30;;;;;;;;;;5021728;28;20439;-72
2021/05/04 03:36:57;;;;;;;8.13;4.77;;;;;;;;;;5005311;28;20528;-71
2021/05/04 03:39:23;;;;;;;5.07;3.90;;;;;;;;;;5007415;28;20546;-72
2021/05/04 03:41:49;;;;;;;3.83;3.20;;;;;;;;;;5022043;28;20813;-72
2021/05/04 03:44:15;;;;;;;8.27;4.97;;;;;;;;;;5006647;28;20436;-72
2021/05/04 03:46:43;;;;;;;5.87;3.87;;;;;;;;;;5005910;28;21067;-71
2021/05/04 03:49:10;;;;;;;7.13;3.33;;;;;;;;;;5018228;28;20941;-72
2021/05/04 03:51:36;;;;;;;8.90;3.60;;;;;;;;;;5008410;28;20439;-70
2021/05/04 03:54:02;;;;;;;10.70;4.53;;;;;;;;;;5023892;28;21011;-71
2021/05/04 03:56:28;;;;;;;10.73;2.90;;;;;;;;;;5006352;28;20469;-72
2021/05/04 03:58:54;;;;;;;6.40;3.23;;;;;;;;;;5004402;28;20424;-72
2021/05/04 04:01:20;;;;;;;5.23;3.63;;;;;;;;;;5004835;28;20443;-71
2021/05/04 04:03:48;;;;;;;5.93;3.37;;;;;;;;;;5023770;28;20439;-72
2021/05/04 04:06:14;;;;;;;9.30;3.73;;;;;;;;;;5013941;28;20431;-71
2021/05/04 04:08:40;;;;;;;4.70;3.73;;;;;;;;;;5017689;28;20521;-72
2021/05/04 04:11:06;;;;;;;7.37;3.30;;;;;;;;;;5021797;28;21004;-73
2021/05/04 04:13:33;;;;;;;4.33;3.10;;;;;;;;;;5022069;28;20438;-71
2021/05/04 04:15:59;;;;;;;6.77;3.43;;;;;;;;;;5005807;28;20443;-70
2021/05/04 04:18:26;;;;;;;6.60;3.57;;;;;;;;;;5023257;28;20464;-73
2021/05/04 04:20:52;;;;;;;4.63;3.53;;;;;;;;;;5003184;28;20439;-71
2021/05/04 04:23:18;;;;;;;7.40;3.80;;;;;;;;;;5021743;28;20447;-71
2021/05/04 04:25:44;;;;;;;16.43;4.30;;;;;;;;;;5023718;28;20444;-71
2021/05/04 04:28:10;;;;;;;10.23;4.93;;;;;;;;;;5015868;28;20973;-72
2021/05/04 04:30:36;;;;;;;4.80;3.70;;;;;;;;;;5022330;28;20437;-72
2021/05/04 04:33:04;;;;;;;4.03;3.63;;;;;;;;;;5019960;28;20917;-71
2021/05/04 04:35:30;;;;;;;6.43;4.10;;;;;;;;;;5020356;28;20423;-73
2021/05/04 04:37:56;;;;;;;5.70;4.30;;;;;;;;;;5018585;28;20463;-73
2021/05/04 04:40:22;;;;;;;10.53;3.60;;;;;;;;;;5007017;28;20953;-72
2021/05/04 04:42:48;;;;;;;3.93;3.53;;;;;;;;;;5024687;28;20466;-73
2021/05/04 04:45:14;;;;;;;12.60;3.77;;;;;;;;;;5004808;28;20431;-72
2021/05/04 04:47:40;;;;;;;6.13;5.13;;;;;;;;;;5019591;28;20497;-72
2021/05/04 04:50:06;;;;;;;3.67;3.37;;;;;;;;;;5005342;28;21326;-73
2021/05/04 04:52:32;;;;;;;6.90;3.50;;;;;;;;;;5005691;28;20462;-73
2021/05/04 04:54:58;;;;;;;3.00;2.80;;;;;;;;;;5024070;28;20791;-73
2021/05/04 04:57:24;;;;;;;6.10;3.60;;;;;;;;;;5003904;28;20463;-71
2021/05/04 04:59:50;;;;;;;5.17;3.43;;;;;;;;;;5025045;28;20488;-71
2021/05/04 05:02:19;;;;;;;10.83;3.47;;;;;;;;;;5021512;28;20815;-71
2021/05/04 05:04:46;;;;;;;3.83;3.43;;;;;;;;;;5009532;28;20435;-72
2021/05/04 05:07:11;;;;;;;4.50;3.73;;;;;;;;;;5009914;28;20556;-71
2021/05/04 05:09:38;;;;;;;4.30;3.10;;;;;;;;;;5027620;28;20443;-71
2021/05/04 05:12:05;;;;;;;4.77;3.30;;;;;;;;;;5024560;28;20917;-71
2021/05/04 05:14:33;;;;;;;4.63;3.13;;;;;;;;;;5021614;28;20749;-73
2021/05/04 05:16:59;;;;;;;2.90;2.70;;;;;;;;;;5010359;28;20531;-73
2021/05/04 05:19:25;;;;;;;4.20;3.50;;;;;;;;;;5010923;28;20459;-72
2021/05/04 05:21:51;;;;;;;3.97;3.53;;;;;;;;;;5009405;28;20543;-71
2021/05/04 05:24:18;;;;;;;14.70;3.77;;;;;;;;;;5011943;28;20505;-72
2021/05/04 05:26:44;;;;;;;4.80;3.40;;;;;;;;;;5029862;28;20489;-72
2021/05/04 05:29:11;;;;;;;4.80;2.93;;;;;;;;;;5030090;28;20788;-72
2021/05/04 05:31:37;;;;;;;4.80;3.27;;;;;;;;;;5027002;28;20517;-71
2021/05/04 05:34:03;;;;;;;5.87;2.87;;;;;;;;;;5023172;28;20427;-71
2021/05/04 05:36:30;;;;;;;5.30;3.37;;;;;;;;;;5025717;28;20481;-72
2021/05/04 05:38:56;;;;;;;9.83;4.13;;;;;;;;;;5030952;28;20916;-71
2021/05/04 05:41:22;;;;;;;8.27;4.20;;;;;;;;;;5033505;28;20458;-71
2021/05/04 05:43:48;;;;;;;6.17;3.33;;;;;;;;;;5024398;28;20978;-70
2021/05/04 05:46:14;;;;;;;4.10;3.33;;;;;;;;;;5005774;28;20522;-71
2021/05/04 05:48:41;;;;;;;7.73;3.23;;;;;;;;;;5019753;28;20569;-72
2021/05/04 05:51:07;;;;;;;4.77;3.57;;;;;;;;;;5010113;28;20999;-72
2021/05/04 05:53:33;;;;;;;3.57;2.97;;;;;;;;;;5024216;28;20451;-72
2021/05/04 05:55:59;;;;;;;7.20;3.40;;;;;;;;;;5022572;28;20466;-72
2021/05/04 05:58:25;;;;;;;4.30;3.30;;;;;;;;;;5003874;28;20463;-71
2021/05/04 06:00:54;;;;;;;4.27;3.10;;;;;;;;;;5013380;28;20481;-71
2021/05/04 06:03:21;;;;;;;3.60;3.30;;;;;;;;;;5026220;28;20438;-70
2021/05/04 06:05:48;;;;;;;4.80;3.10;;;;;;;;;;5027911;28;20506;-71
2021/05/04 06:08:14;;;;;;;4.73;3.07;;;;;;;;;;5019462;28;20557;-71
2021/05/04 06:10:40;;;;;;;6.53;2.57;;;;;;;;;;5014645;28;20881;-71
2021/05/04 06:13:07;;;;;;;9.93;4.03;;;;;;;;;;5025361;28;20441;-70
2021/05/04 06:15:34;;;;;;;6.43;3.50;;;;;;;;;;4995349;28;20447;-72
2021/05/04 06:18:00;;;;;;;5.80;3.40;;;;;;;;;;5004615;28;21001;-72
2021/05/04 06:20:26;;;;;;;4.80;3.17;;;;;;;;;;4991723;28;20559;-71
2021/05/04 06:22:52;;;;;;;7.60;3.80;;;;;;;;;;4990597;28;20969;-71
2021/05/04 06:25:18;;;;;;;6.00;3.10;;;;;;;;;;5019838;28;20454;-70
2021/05/04 06:27:44;;;;;;;6.57;2.67;;;;;;;;;;4990705;28;20493;-71
2021/05/04 06:30:12;;;;;;;5.33;2.03;;;;;;;;;;5028206;28;20435;-71
2021/05/04 06:32:41;;;;;;;6.60;2.57;;;;;;;;;;5026998;28;20423;-71
2021/05/04 06:35:08;;;;;;;10.97;3.47;;;;;;;;;;5024589;28;20481;-72
2021/05/04 06:37:34;;;;;;;7.27;3.03;;;;;;;;;;5006383;28;20475;-71
2021/05/04 06:40:00;;;;;;;5.77;3.10;;;;;;;;;;4991645;28;20443;-70
2021/05/04 06:42:26;;;;;;;4.83;2.50;;;;;;;;;;4995121;28;20527;-72
2021/05/04 06:44:52;;;;;;;7.60;2.70;;;;;;;;;;5023848;28;20810;-71
2021/05/04 06:47:18;;;;;;;5.80;3.53;;;;;;;;;;5020413;28;20837;-72
2021/05/04 06:49:45;;;;;;;4.37;2.50;;;;;;;;;;5015525;28;20440;-71
2021/05/04 06:52:11;;;;;;;9.67;3.80;;;;;;;;;;5011415;28;20443;-72
2021/05/04 06:54:37;;;;;;;5.37;3.43;;;;;;;;;;5012737;28;20440;-72
2021/05/04 06:57:03;;;;;;;6.43;3.10;;;;;;;;;;5002412;28;20467;-72
2021/05/04 06:59:29;;;;;;;8.50;3.57;;;;;;;;;;5010594;28;20538;-71
2021/05/04 07:01:56;;;;;;;5.43;3.10;;;;;;;;;;4995784;28;20449;-75
2021/05/04 07:04:22;;;;;;;4.80;3.77;;;;;;;;;;5018385;28;20439;-73
2021/05/04 07:06:48;;;;;;;5.40;3.77;;;;;;;;;;5019849;28;20458;-72
2021/05/04 07:09:14;;;;;;;10.43;3.67;;;;;;;;;;5029448;28;20956;-72
2021/05/04 07:11:42;;;;;;;5.00;3.60;;;;;;;;;;5015033;28;20477;-73
2021/05/04 07:14:08;;;;;;;9.00;2.80;;;;;;;;;;5038044;28;20434;-73
2021/05/04 07:16:35;;;;;;;3.30;3.00;;;;;;;;;;5013965;28;20444;-73
2021/05/04 07:19:01;;;;;;;5.00;3.17;;;;;;;;;;5011395;28;20431;-73
2021/05/04 07:21:28;;;;;;;5.00;3.47;;;;;;;;;;5013633;28;20534;-74
2021/05/04 07:23:54;;;;;;;7.13;3.50;;;;;;;;;;5019562;28;20438;-72
2021/05/04 07:26:20;;;;;;;5.83;2.40;;;;;;;;;;5029464;28;20942;-72
2021/05/04 07:28:46;;;;;;;2.53;2.33;;;;;;;;;;5029980;28;20458;-72
2021/05/04 07:31:12;;;;;;;8.10;2.47;;;;;;;;;;5018431;28;20533;-72
2021/05/04 07:33:38;;;;;;;3.33;1.83;;;;;;;;;;5019580;28;20521;-73
2021/05/04 07:36:05;;;;;;;5.87;2.57;;;;;;;;;;5028342;28;20453;-72
2021/05/04 07:38:31;;;;;;;10.23;2.63;;;;;;;;;;5032846;28;20492;-73
2021/05/04 07:40:57;;;;;;;5.47;2.87;;;;;;;;;;5031920;28;20439;-72
2021/05/04 07:43:23;;;;;;;6.87;3.40;;;;;;;;;;5009441;28;21169;-75
2021/05/04 07:45:49;;;;;;;5.13;3.20;;;;;;;;;;5017585;28;20434;-73
2021/05/04 07:48:17;;;;;;;6.17;2.87;;;;;;;;;;5023326;28;20586;-73
2021/05/04 07:50:43;;;;;;;8.40;2.90;;;;;;;;;;5010591;28;20431;-72
2021/05/04 07:53:09;;;;;;;13.03;3.37;;;;;;;;;;5023785;28;20447;-72
2021/05/04 07:55:35;;;;;;;8.33;3.60;;;;;;;;;;5024589;28;20423;-73
2021/05/04 07:58:01;;;;;;;9.97;3.63;;;;;;;;;;5020003;28;20990;-72
2021/05/04 08:00:30;;;;;;;8.80;3.00;;;;;;;;;;5040769;28;20931;-73
2021/05/04 08:02:56;;;;;;;19.77;4.13;;;;;;;;;;5024643;28;20430;-72
2021/05/04 08:05:22;;;;;;;11.40;3.30;;;;;;;;;;5025715;28;20438;-72
2021/05/04 08:07:48;;;;;;;7.43;2.00;;;;;;;;;;5022523;28;20463;-72
2021/05/04 08:10:14;;;;;;;7.20;2.20;;;;;;;;;;5014251;28;20501;-72
2021/05/04 08:12:40;;;;;;;10.10;2.37;;;;;;;;;;5041985;28;20441;-72
2021/05/04 08:15:11;;;;;;;5.40;2.30;;;;;;;;;;5037550;28;20436;-72
2021/05/04 08:17:39;;;;;;;6.93;2.10;;;;;;;;;;5031917;28;20462;-73
2021/05/04 08:20:05;;;;;;;8.83;2.47;;;;;;;;;;5043371;28;20441;-72
2021/05/04 08:22:31;;;;;;;10.20;2.10;;;;;;;;;;5024619;28;20464;-71
2021/05/04 08:25:00;;;;;;;14.03;2.10;;;;;;;;;;5010124;28;20449;-72
2021/05/04 08:27:28;;;;;;;6.57;1.97;;;;;;;;;;5022696;28;20478;-73
2021/05/04 08:29:54;;;;;;;11.70;2.53;;;;;;;;;;5006229;28;20437;-72
2021/05/04 08:32:20;;;;;;;6.13;1.80;;;;;;;;;;5006377;28;20485;-71
2021/05/04 08:34:46;;;;;;;14.50;3.07;;;;;;;;;;5039826;28;20426;-71
2021/05/04 08:37:12;;;;;;;12.43;2.53;;;;;;;;;;5038324;28;20473;-70
2021/05/04 08:39:38;;;;;;;15.20;3.30;;;;;;;;;;5010602;28;20438;-72
2021/05/04 08:42:04;;;;;;;17.50;3.13;;;;;;;;;;5013294;28;20490;-70
2021/05/04 08:44:30;;;;;;;19.83;4.50;;;;;;;;;;5018516;28;20541;-71
2021/05/04 08:46:57;;;;;;;13.13;3.47;;;;;;;;;;5019223;28;20470;-70
2021/05/04 08:49:23;;;;;;;15.23;3.73;;;;;;;;;;5012820;28;21018;-72
2021/05/04 08:51:50;;;;;;;13.67;3.10;;;;;;;;;;5036563;28;20870;-71
2021/05/04 08:54:17;;;;;;;10.80;3.23;;;;;;;;;;5026550;28;20882;-70
2021/05/04 08:56:43;;;;;;;20.47;4.10;;;;;;;;;;5031794;28;21065;-71
2021/05/04 08:59:10;;;;;;;17.27;3.50;;;;;;;;;;5030629;28;20829;-71
2021/05/04 09:01:36;;;;;;;14.20;4.13;;;;;;;;;;5012715;28;20444;-70
2021/05/04 09:04:07;;;;;;;21.33;3.87;;;;;;;;;;5010429;28;20520;-70
2021/05/04 09:06:36;;;;;;;13.50;3.30;;;;;;;;;;5028165;28;20796;-71
2021/05/04 09:09:30;;;;;;;20.47;4.50;;;;;;;;;;5031943;28;20963;-70
2021/05/04 09:12:06;;;;;;;9.43;2.60;;;;;;;;;;5035824;28;20802;-71
2021/05/04 09:17:16;;;;;;;6.97;1.57;;;;;;;;;;5045799;28;20508;-71
2021/05/04 09:22:10;;;;;;;7.03;2.60;;;;;;;;;;5038884;28;20427;-73
2021/05/04 09:24:44;;;;;;;5.97;1.80;;;;;;;;;;5027946;28;20970;-71
2021/05/04 09:27:12;;;;;;;5.30;1.30;;;;;;;;;;5042588;28;20531;-72
2021/05/04 09:29:38;;;;;;;5.80;2.10;;;;;;;;;;5033210;28;20419;-71
2021/05/04 09:32:17;;;;;;;9.83;1.90;;;;;;;;;;5044777;28;20480;-70
2021/05/04 09:34:49;;;;;;;13.07;2.30;;;;;;;;;;5044521;28;20552;-71
2021/05/04 09:37:22;;;;;;;10.73;1.80;;;;;;;;;;5020533;28;20833;-71
2021/05/04 09:39:48;;;;;;;6.00;2.17;;;;;;;;;;5026793;28;20464;-72
2021/05/04 09:42:15;;;;;;;14.03;3.17;;;;;;;;;;5050634;28;20521;-71
2021/05/04 09:44:42;;;;;;;11.60;2.63;;;;;;;;;;5014453;28;20427;-71
2021/05/04 09:47:09;;;;;;;10.50;3.00;;;;;;;;;;5014399;28;20494;-71
2021/05/04 09:49:37;;;;;;;16.03;2.60;;;;;;;;;;5024657;28;20444;-71
2021/05/04 09:52:34;;;;;;;12.00;2.93;;;;;;;;;;5029500;28;20799;-71
2021/05/04 09:55:06;;;;;;;11.57;2.47;;;;;;;;;;5021817;28;20407;-72
2021/05/04 09:57:33;;;;;;;10.03;2.70;;;;;;;;;;5024933;28;20940;-72
2021/05/04 10:00:00;;;;;;;6.47;2.30;;;;;;;;;;5017174;28;20824;-70
2021/05/04 10:02:26;;;;;;;4.67;1.50;;;;;;;;;;5016175;28;20439;-70
2021/05/04 10:04:53;;;;;;;8.00;2.00;;;;;;;;;;5006807;28;20521;-72
2021/05/04 10:07:23;;;;;;;4.57;1.67;;;;;;;;;;5000657;28;20474;-71
2021/05/04 10:09:50;;;;;;;10.57;1.80;;;;;;;;;;5000867;28;20427;-71
2021/05/04 10:12:20;;;;;;;4.83;1.87;;;;;;;;;;5014571;28;20435;-70
2021/05/04 10:14:46;;;;;;;4.87;1.53;;;;;;;;;;5001091;28;20881;-71
2021/05/04 10:17:15;;;;;;;9.10;2.20;;;;;;;;;;5016672;28;20474;-72
2021/05/04 10:19:41;;;;;;;10.43;1.83;;;;;;;;;;5024085;28;20470;-72
2021/05/04 10:22:07;;;;;;;13.13;2.70;;;;;;;;;;5022488;28;20431;-72
2021/05/04 10:24:34;;;;;;;5.03;1.30;;;;;;;;;;5012980;28;20493;-71
2021/05/04 10:27:04;;;;;;;7.40;2.03;;;;;;;;;;5003094;28;21054;-70
2021/05/04 10:29:30;;;;;;;7.60;1.40;;;;;;;;;;5011235;28;20440;-70
2021/05/04 10:31:58;;;;;;;4.40;1.33;;;;;;;;;;5026062;28;20522;-71
2021/05/04 10:34:24;;;;;;;5.40;1.23;;;;;;;;;;5015746;28;20442;-70
2021/05/04 10:36:54;;;;;;;5.33;1.30;;;;;;;;;;5025590;28;20562;-70
2021/05/04 10:39:37;;;;;;;5.50;1.53;;;;;;;;;;5013595;28;20807;-71
2021/05/04 10:42:05;;;;;;;10.83;2.37;;;;;;;;;;5003491;28;20465;-70
2021/05/04 10:44:31;;;;;;;8.07;1.30;;;;;;;;;;5026536;28;20431;-70
2021/05/04 10:46:57;;;;;;;9.67;1.43;;;;;;;;;;5019808;28;20983;-70
2021/05/04 10:49:42;;;;;;;6.60;1.87;;;;;;;;;;5013479;28;20482;-70
2021/05/04 10:52:08;;;;;;;7.80;1.53;;;;;;;;;;5026649;28;20443;-70
2021/05/04 10:54:54;;;;;;;6.60;1.53;;;;;;;;;;5030568;28;20423;-71
2021/05/04 10:57:20;;;;;;;5.03;1.70;;;;;;;;;;5010264;28;20449;-70
2021/05/04 10:59:46;;;;;;;4.73;1.40;;;;;;;;;;5025322;28;20813;-70
2021/05/04 11:02:18;;;;;;;8.23;1.83;;;;;;;;;;5025894;28;20965;-70
2021/05/04 11:04:45;;;;;;;3.87;1.40;;;;;;;;;;5026379;28;20439;-70
2021/05/04 11:07:11;;;;;;;5.60;1.70;;;;;;;;;;5028181;28;20474;-71
2021/05/04 11:09:40;;;;;;;9.70;2.10;;;;;;;;;;5026567;28;20462;-70
2021/05/04 11:12:10;;;;;;;7.83;1.50;;;;;;;;;;5023131;28;20981;-70
2021/05/04 11:14:39;;;;;;;6.53;1.30;;;;;;;;;;5023826;28;21011;-70
2021/05/04 11:17:08;;;;;;;3.40;1.00;;;;;;;;;;5002260;28;20467;-71
2021/05/04 11:19:36;;;;;;;10.40;1.30;;;;;;;;;;4998280;28;20446;-71
2021/05/04 11:22:05;;;;;;;3.07;0.90;;;;;;;;;;5005595;28;21077;-70
2021/05/04 11:24:34;;;;;;;3.20;1.20;;;;;;;;;;5009452;28;20439;-70
2021/05/04 11:27:02;;;;;;;2.87;0.77;;;;;;;;;;5006779;28;20476;-72
2021/05/04 11:29:31;;;;;;;2.10;0.60;;;;;;;;;;5003916;28;20523;-70
2021/05/04 11:32:14;;;;;;;0.80;0.50;;;;;;;;;;5015410;28;20523;-71
2021/05/04 11:34:42;;;;;;;2.20;0.80;;;;;;;;;;5013516;28;20665;-70
2021/05/04 11:37:10;;;;;;;2.80;0.70;;;;;;;;;;5007008;28;20493;-72
2021/05/04 11:39:37;;;;;;;2.40;0.60;;;;;;;;;;5023584;28;20443;-71
2021/05/04 11:42:04;;;;;;;5.03;0.50;;;;;;;;;;5019797;28;20502;-70
2021/05/04 11:44:31;;;;;;;2.27;0.67;;;;;;;;;;5023241;28;20459;-70
2021/05/04 11:47:17;;;;;;;4.00;0.80;;;;;;;;;;5013157;28;20843;-71
2021/05/04 11:49:43;;;;;;;4.00;1.00;;;;;;;;;;5008480;28;20527;-72
2021/05/04 11:52:09;;;;;;;7.73;1.00;;;;;;;;;;5021410;28;20426;-72
2021/05/04 11:54:36;;;;;;;5.47;1.10;;;;;;;;;;5024043;28;20435;-71
2021/05/04 11:57:03;;;;;;;1.70;0.80;;;;;;;;;;5007798;28;20921;-71
2021/05/04 11:59:29;;;;;;;5.60;1.50;;;;;;;;;;5004415;28;20534;-70
2021/05/04 12:01:55;;;;;;;3.30;1.30;;;;;;;;;;5023405;28;20776;-70
2021/05/04 12:04:41;;;;;;;2.90;1.13;;;;;;;;;;5019822;28;20973;-72
2021/05/04 12:07:07;;;;;;;7.33;1.33;;;;;;;;;;5003272;28;20592;-71
2021/05/04 12:09:36;;;;;;;7.53;1.60;;;;;;;;;;5003802;28;20920;-70
2021/05/04 12:12:14;;;;;;;8.53;1.30;;;;;;;;;;5024015;28;20485;-70
2021/05/04 12:14:57;;;;;;;4.50;1.37;;;;;;;;;;5007346;28;20450;-70
2021/05/04 12:17:27;;;;;;;7.03;1.30;;;;;;;;;;5006209;28;20459;-70
2021/05/04 12:19:54;;;;;;;5.37;1.27;;;;;;;;;;5022246;28;20458;-70
2021/05/04 12:22:20;;;;;;;3.37;1.33;;;;;;;;;;5005546;28;20526;-71
2021/05/04 12:24:46;;;;;;;6.03;1.53;;;;;;;;;;5025040;28;20480;-70
2021/05/04 12:27:12;;;;;;;5.17;1.33;;;;;;;;;;5024527;28;20482;-71
2021/05/04 12:29:38;;;;;;;4.33;1.43;;;;;;;;;;5008640;28;20454;-70
2021/05/04 12:32:05;;;;;;;1.37;1.00;;;;;;;;;;5008984;28;20420;-71
2021/05/04 12:34:31;;;;;;;5.00;1.27;;;;;;;;;;5005993;28;20964;-72
2021/05/04 12:36:59;;;;;;;3.83;1.00;;;;;;;;;;5005175;28;20475;-71
2021/05/04 12:39:30;;;;;;;2.07;1.07;;;;;;;;;;5030767;28;20431;-71
2021/05/04 12:41:57;;;;;;;3.03;0.97;;;;;;;;;;5042749;28;20434;-70
2021/05/04 12:44:30;;;;;;;6.00;1.37;;;;;;;;;;5021684;28;20430;-71
2021/05/04 12:46:59;;;;;;;7.20;1.40;;;;;;;;;;5030642;28;20529;-70
2021/05/04 12:49:35;;;;;;;2.53;1.23;;;;;;;;;;5028905;28;20901;-70
2021/05/04 12:52:07;;;;;;;6.00;2.67;;;;;;;;;;5019653;28;20438;-69
2021/05/04 12:54:35;;;;;;;1.63;1.00;;;;;;;;;;5017994;28;20909;-71
2021/05/04 12:57:01;;;;;;;8.30;1.20;;;;;;;;;;5011250;28;20454;-69
2021/05/04 12:59:28;;;;;;;1.43;0.90;;;;;;;;;;5009033;28;20489;-70
2021/05/04 13:02:05;;;;;;;8.20;1.30;;;;;;;;;;5017772;28;20478;-70
2021/05/04 13:04:45;;;;;;;9.77;1.50;;;;;;;;;;5019690;28;20447;-70
2021/05/04 13:07:38;;;;;;;3.43;1.17;;;;;;;;;;5024267;28;20485;-70
2021/05/04 13:13:13;;;;;;;5.97;2.50;;;;;;;;;;4998916;28;20426;-70
2021/05/04 13:16:23;;;;;;;3.20;2.20;;;;;;;;;;5027766;28;20990;-71
2021/05/04 13:30:12;;;;;;;10.67;2.20;;;;;;;;;;5033537;28;20448;-70
2021/05/04 13:32:39;;;;;;;7.40;1.90;;;;;;;;;;5008507;28;20434;-70
2021/05/04 13:35:08;;;;;;;7.47;2.00;;;;;;;;;;5008143;28;20875;-70
2021/05/04 13:40:28;;;;;;;5.27;1.70;;;;;;;;;;5025474;28;20458;-70
2021/05/04 13:48:28;;;;;;;2.60;1.50;;;;;;;;;;5028789;28;20895;-69
2021/05/04 13:50:55;;;;;;;5.30;1.40;;;;;;;;;;5012224;28;20440;-71
2021/05/04 13:53:21;;;;;;;6.23;1.60;;;;;;;;;;5028290;28;20423;-71
2021/05/04 13:55:47;;;;;;;4.43;1.30;;;;;;;;;;5008133;28;20439;-71
2021/05/04 13:58:15;;;;;;;4.30;1.50;;;;;;;;;;5001165;28;20834;-72
2021/05/04 14:27:40;;;;;;;2.27;1.30;;;;;;;;;;5018803;28;21043;-70
2021/05/04 14:30:09;;;;;;;2.73;1.37;;;;;;;;;;5012130;28;20462;-70
2021/05/04 14:32:35;;;;;;;6.23;1.80;;;;;;;;;;5008994;28;20450;-70
2021/05/04 14:35:03;;;;;;;4.77;1.57;;;;;;;;;;5021446;28;20430;-71
2021/05/04 14:38:04;;;;;;;5.37;2.00;;;;;;;;;;5010562;28;20481;-70
2021/05/04 14:41:28;;;;;;;5.73;2.40;;;;;;;;;;5023353;28;20419;-71
2021/05/04 14:43:46;;;;;;;5.97;1.90;;;;;;;;;;5014574;28;20495;-70
2021/05/04 14:46:42;;;;;;;4.10;1.77;;;;;;;;;;5014244;28;20439;-71
2021/05/04 15:02:47;;;;;;;7.47;1.63;;;;;;;;;;5025660;28;20459;-70
2021/05/04 15:05:15;;;;;;;4.67;1.73;;;;;;;;;;5012899;28;20443;-72
2021/05/04 15:07:41;;;;;;;4.90;1.20;;;;;;;;;;5014302;28;21195;-73
2021/05/04 15:10:07;;;;;;;10.60;1.87;;;;;;;;;;5012091;28;20444;-72
2021/05/04 15:12:33;;;;;;;5.77;1.70;;;;;;;;;;5019175;28;20988;-70
2021/05/04 15:15:02;;;;;;;5.23;2.00;;;;;;;;;;5019942;28;20440;-71
2021/05/04 15:18:05;;;;;;;7.50;1.70;;;;;;;;;;5023876;28;20455;-71
2021/05/04 15:23:05;;;;;;;3.80;1.67;;;;;;;;;;5018629;28;20443;-70
2021/05/04 15:25:31;;;;;;;11.23;1.80;;;;;;;;;;5026823;28;20848;-73
2021/05/04 15:27:57;;;;;;;8.70;1.70;;;;;;;;;;5028291;28;20472;-71
2021/05/04 15:30:23;;;;;;;4.03;1.63;;;;;;;;;;5029071;28;26697;-70
2021/05/04 15:35:24;;;;;;;9.07;2.00;;;;;;;;;;5022774;28;20481;-72
2021/05/04 15:37:50;;;;;;;10.13;2.37;;;;;;;;;;5024330;28;20852;-70
2021/05/04 15:40:16;;;;;;;10.40;2.47;;;;;;;;;;5012679;28;20450;-70
2021/05/04 15:42:42;;;;;;;7.13;1.83;;;;;;;;;;5003678;28;20446;-71
2021/05/04 15:45:10;;;;;;;8.37;2.23;;;;;;;;;;5005534;28;20519;-69
2021/05/04 16:01:16;;;;;;;8.73;2.03;;;;;;;;;;5013397;28;20431;-69
2021/05/04 16:06:41;;;;;;;14.03;2.43;;;;;;;;;;5017821;28;20447;-68
2021/05/04 16:09:10;;;;;;;7.57;2.30;;;;;;;;;;5024103;28;20557;-70
2021/05/04 16:11:36;;;;;;;11.47;3.43;;;;;;;;;;5013134;28;20485;-71
2021/05/04 16:14:02;;;;;;;8.03;2.67;;;;;;;;;;5010992;28;20440;-69
2021/05/04 16:16:30;;;;;;;6.50;2.00;;;;;;;;;;5005250;28;20527;-72